Gabriel Lucero

Olheiro-Chefe - Independiente Rivadavia
4 Abr 2027
Domingo
Processo

Personalidade

Adaptabilidade (8) Ambição (15) Controvérsia (19) Lealdade (16) Pressão (10) Profissionalismo (16) Espírito Esportivo (4) Temperamento (17)

Perfil

Estilo de Treinamento Democrático
Licença Continental Pro
Determinação 7
Gestão de Pessoas 6
Motivação 4
Disciplina 12
Satisfação no Trabalho
50%
Fadiga
0%
Função Olheiro-Chefe
Salário 77.9K p/s
Contrato 14.03.2029

Desempenho

Comportamento Normal
Eficácia do Treinamento
18%
Desenvolvimento do Jogador
35%
Prevenção de Lesões
20%
Implementação Tática
30%

Eventos Recentes

Participou de uma reunião de recrutamento 7d atrás
Participou de uma reunião de recrutamento 14d atrás
Participou de uma reunião de recrutamento 21d atrás
Participou de uma reunião de recrutamento 28d atrás
Participou de uma reunião de recrutamento 35d atrás
Participou de uma reunião de recrutamento 42d atrás
Participou de uma reunião de recrutamento 49d atrás
Participou de uma reunião de recrutamento 56d atrás

Monitorando agora

86
Jogador Clube Status Habilidade Confiança Observado Última observação Último voto
Tomás O'Connor Gimnasia y Esgrima Ativo 116 / 112 40% 3 30.11.2026 -
Joaquín García Vélez Ativo 138 / 126 40% 1 29.11.2026 -
Ştefan Baiaram Universitatea Craiova Ativo 122 / 122 40% 1 28.11.2026 -
Emil Ceïde Rosenborg Ativo 115 / 109 40% 1 27.11.2026 -
Suleiman Camara Slovan Bratislava Ativo 113 / 108 40% 1 26.11.2026 -
Akinkunmi Amoo Ismaily Ativo 103 / 116 40% 1 24.11.2026 -
Marko Brest Olimpija Ljubljana Ativo 98 / 123 40% 2 23.11.2026 -
Josip Mitrović Slaven Belupo Ativo 100 / 127 40% 1 20.11.2026 -
Juan Bezerra Zamalek Ativo 109 / 108 40% 2 19.11.2026 -
Ronaldo Vásquez Sumgayit Ativo 102 / 133 40% 1 19.11.2026 -
Pedro Ramírez Deportivo Riestra Ativo 115 / 109 40% 1 18.11.2026 -
Patrik Wålemark Lech Ativo 109 / 130 40% 2 15.11.2026 -
Camilo Durán Bloemfontein Celtic Ativo 100 / 101 40% 2 09.11.2026 -
Siro Rosané Estudiantes Ativo 112 / 117 40% 1 05.11.2026 -
Ola Brynhildsen Bodo/Glimt Ativo 112 / 126 40% 1 04.11.2026 -
Alexis Cuello San Lorenzo Ativo 114 / 129 40% 1 02.11.2026 -
Mariano Bracamonte Deportivo Riestra Ativo 122 / 103 40% 1 02.11.2026 -
Peter Federico Gornik Zabrze Ativo 122 / 122 40% 1 01.11.2026 -
Håkon Evjen Bodo/Glimt Ativo 122 / 129 40% 1 30.10.2026 -
Itumeleng Tau Ajax Cape Town Ativo 99 / 120 40% 1 24.10.2026 -
Erik Botheim Malmo FF Ativo 108 / 141 40% 2 21.10.2026 -
Victor Lind Hammarby Ativo 131 / 135 40% 1 21.10.2026 -
Taisei Miyashiro Seattle Sounders Ativo 118 / 132 40% 1 19.10.2026 -
Angelo Gattermayer Wolfsberger AC Ativo 102 / 126 40% 1 19.10.2026 -
Juan Bisanz Huracán Ativo 129 / 131 40% 1 18.10.2026 -
Matías Pellegrini Vélez Ativo 105 / 127 40% 1 18.10.2026 -
Marcelo Allende Mamelodi Sundowns Ativo 150 / 137 40% 1 17.10.2026 -
Joaquín Gho Argentinos Juniors Ativo 127 / 109 40% 1 11.10.2026 -
Helinho Toluca Ativo 120 / 119 40% 2 09.10.2026 -
Vicente Poggi Godoy Cruz Ativo 125 / 126 40% 1 09.10.2026 -
Relebohile Mofokeng Orlando Pirates Ativo 111 / 103 40% 1 07.10.2026 -
Junior Hernández AIK Ativo 135 / 125 40% 1 06.10.2026 -
Tomás Adoryan Banfield Ativo 113 / 122 40% 1 06.10.2026 -
Ezekiel Kwame Alladoh Philadelphia Union Ativo 98 / 127 40% 2 02.10.2026 -
Diego Corral Universidad Catolica Ativo 96 / 93 40% 1 02.10.2026 -
Luther Zwane Platinum Stars Ativo 120 / 89 40% 2 28.09.2026 -
Ariath Piol Real Salt Lake Ativo 97 / 93 40% 1 28.09.2026 -
Juan Rodríguez Wanderers Ativo 92 / 100 40% 1 26.09.2026 -
Bruno Caicedo Vancouver Whitecaps Ativo 100 / 118 40% 1 26.09.2026 -
Inti López River Plate Ativo 83 / 97 40% 2 24.09.2026 -
David Fernández O'Higgins Ativo 104 / 121 40% 1 24.09.2026 -
Fabrizio Correa Juventud Ativo 109 / 112 40% 3 19.09.2026 -
José Hernández Queretaro Ativo 116 / 101 40% 1 19.09.2026 -
Williams Barlasina Fortaleza CEIF Ativo 120 / 120 40% 3 18.09.2026 -
Rodrigo Morínigo Libertad Ativo 126 / 110 40% 3 17.09.2026 -
Luis Ingolotti Atlético Tucumán Ativo 124 / 112 40% 1 17.09.2026 -
Manuel Roffo Cerro Porteno Ativo 120 / 129 40% 2 15.09.2026 -
Fernando Tapia Club America Ativo 141 / 116 40% 2 15.09.2026 -
Víctor Cabezas Union Magdalena Ativo 116 / 105 40% 2 14.09.2026 -
Renato Solís Lech Ativo 103 / 115 40% 1 14.09.2026 -
Joaquín Silva Plaza Colonia Ativo 100 / 104 40% 4 12.09.2026 -
Alejandro Rodríguez Deportivo Cali Ativo 108 / 116 40% 2 12.09.2026 -
Ciprian Coman Pandurii Ativo 135 / 114 40% 1 12.09.2026 -
Valentín Luciani Fenix Ativo 106 / 88 40% 2 11.09.2026 -
Alan Torterolo Defensor Sporting Ativo 92 / 104 40% 1 10.09.2026 -
Archie Goodwin Charlotte Football Club Ativo 112 / 113 40% 1 10.09.2026 -
Xavier Biscayzacú Defensor Sporting Ativo 130 / 137 40% 1 09.09.2026 -
Nicolás Azambuja Danubio Ativo 124 / 122 40% 1 09.09.2026 -
Patrick Preciado Deportivo Pasto Ativo 96 / 113 40% 1 08.09.2026 -
Francisco Casanova Cerrito Ativo 112 / 92 40% 3 06.09.2026 -
Juan Moreno Cerro Largo Ativo 123 / 104 40% 2 04.09.2026 -
Matt Freese New York City Ativo 130 / 138 40% 1 03.09.2026 -
Moisés Gallo Zulia Ativo 88 / 95 40% 1 01.09.2026 -
Weibmar Asprilla Independiente Medellin Ativo 115 / 102 40% 2 29.08.2026 -
Santino Barbi Talleres Ativo 119 / 117 40% 1 29.08.2026 -
Federico Losas Leon Ativo 116 / 106 40% 1 28.08.2026 -
Manuel Rodríguez Millonarios Ativo 85 / 86 40% 1 28.08.2026 -
Egoitz Arana Real Sociedad Ativo 116 / 84 40% 1 26.08.2026 -
Nicolás Sosa La Luz Ativo 96 / 95 40% 1 25.08.2026 -
Felix Mosquera Deportes Quindio Ativo 74 / 97 40% 1 25.08.2026 -
Carlos Moreno Pachuca Ativo 135 / 135 40% 3 22.08.2026 -
Sebastián Jaume Albion Ativo 85 / 113 40% 1 20.08.2026 -
Adriano Freitas Deportivo Maldonado Ativo 93 / 98 40% 1 20.08.2026 -
Hílder Arboleda Union Magdalena Ativo 92 / 85 40% 1 19.08.2026 -
Alex Woiski Deportivo Tachira Ativo 85 / 108 40% 1 19.08.2026 -
Gleyfer Medina Los Angeles Football Club Ativo 103 / 113 40% 1 15.08.2026 -
Emiliano Bermúdez Oriental Ativo 93 / 94 40% 1 13.08.2026 -
Santiago Silva Boston River Ativo 116 / 104 40% 1 12.08.2026 -
Juan Diego Jaramillo Depor Ativo 93 / 87 40% 1 07.08.2026 -
Lucas Bruera Carabobo Ativo 128 / 125 40% 1 06.08.2026 -
Nicolas Ramirez La Equidad Ativo 123 / 142 40% 1 06.08.2026 -
Paul Bellón Leon Ativo 122 / 113 40% 1 06.08.2026 -
Chris Brady Chicago Fire Ativo 110 / 126 40% 1 04.08.2026 -
Hector Uribe La Equidad Ativo 100 / 95 40% 1 03.08.2026 -
Igor Nikić Mirandés Ativo 112 / 96 40% 1 02.08.2026 -
Ángel Maciel Tacuarembo Ativo 100 / 95 40% 1 01.08.2026 -